Leander, TX (78641)

4:24 AM CST on February 06, 2016 (GMT -0600)
Crystal Falls Mesa Oaks | | Change Station
CLOSE
Current Station
Personal Weather Station
Location: Leander, TX
Elevation: 1047 ft
Nearby Weather Stations

Elev 1047 ft 30.53 °N, 97.87 °W | Updated 14 seconds ago

Clear
Clear
42.3 °F
Feels Like 42 °F
N
2.5
Wind Variable Wind from South
Gusts 4.9 mph

Today
High -- | Low -- °F
--% Chance of Precip.
Yesterday
High -- | Low -- °F
Precip. -- in
Pressure 30.30 in
Visibility 10.0 miles
Clouds Clear
Windchill 42 °F
Dew Point 37 °F
Humidity 81%
Rainfall 0.05 in
Snow Depth Not available.
7:19 AM 6:11 PM
Waning Crescent, 6% visible
METAR KRYW 061015Z AUTO 28009G15KT 10SM CLR 07/01 A3030 RMK AO2 T00700006
Pressure 30.30 in
Visibility 10.0 miles
Clouds Clear
Windchill 42 °F
Dew Point 37 °F
Humidity 81%
Rainfall 0.05 in
Snow Depth Not available.
7:19 AM 6:11 PM
Waning Crescent, 6% visible
METAR KRYW 061015Z AUTO 28009G15KT 10SM CLR 07/01 A3030 RMK AO2 T00700006

10-Day Weather Forecast

Almanac

Astronomy

Feb. 06, 2016 Rise Set
Actual Time
Civil Twilight
Nautical Twilight
Astronomical Twilight
Moon
Length of Visible Light
Length of Day
Tomorrow will be .
, % of the Moon is Illuminated

Today's Extremes

State Highs State Lows

Community

WunderPhotos

Upload Photos

1,890,933 photos uploaded!

WunderBlog® & News

Nearby

Air Quality

  Air Quality AQ Index Pollutant
Not available.

Snow Depth

Station Depth Elevation

Earthquake Activity

City Distance Mag. Time & Date
Minimum magnitude displayed is 2.5.

Coastal Water Temperatures

Place Temperature

Stations

Nearby Weather Stations

Station Location Temp. Windchill Dew Point Humidity Wind Precip. Elev Updated Type
                   

Watches & Warnings

There are currently no watches in effect.